sensor_id;sensor_type;location;lat;lon;timestamp;temperature;humidity
62424;DHT22;48463;43.604;3.872;2023-05-10T00:00:13;17.50;99.90
62424;DHT22;48463;43.604;3.872;2023-05-10T00:02:39;17.60;99.90
62424;DHT22;48463;43.604;3.872;2023-05-10T00:05:06;17.40;99.90
62424;DHT22;48463;43.604;3.872;2023-05-10T00:07:32;17.40;99.90
62424;DHT22;48463;43.604;3.872;2023-05-10T00:09:57;17.40;99.90
62424;DHT22;48463;43.604;3.872;2023-05-10T00:12:23;17.40;99.90
62424;DHT22;48463;43.604;3.872;2023-05-10T00:14:49;17.30;99.90
62424;DHT22;48463;43.604;3.872;2023-05-10T00:17:14;17.30;99.90
62424;DHT22;48463;43.604;3.872;2023-05-10T00:19:40;17.20;99.90
62424;DHT22;48463;43.604;3.872;2023-05-10T00:22:06;17.20;99.90
62424;DHT22;48463;43.604;3.872;2023-05-10T00:24:31;17.10;99.90
62424;DHT22;48463;43.604;3.872;2023-05-10T00:26:57;17.10;99.90
62424;DHT22;48463;43.604;3.872;2023-05-10T00:29:23;17.10;99.90
62424;DHT22;48463;43.604;3.872;2023-05-10T00:31:48;17.10;99.90
62424;DHT22;48463;43.604;3.872;2023-05-10T00:34:14;17.20;99.90
62424;DHT22;48463;43.604;3.872;2023-05-10T00:36:40;17.20;99.90
62424;DHT22;48463;43.604;3.872;2023-05-10T00:39:05;17.20;99.90
62424;DHT22;48463;43.604;3.872;2023-05-10T00:41:31;17.00;99.90
62424;DHT22;48463;43.604;3.872;2023-05-10T00:43:59;16.80;99.90
62424;DHT22;48463;43.604;3.872;2023-05-10T00:46:26;16.80;99.90
62424;DHT22;48463;43.604;3.872;2023-05-10T00:48:52;16.70;99.90
62424;DHT22;48463;43.604;3.872;2023-05-10T00:51:19;16.70;99.90
62424;DHT22;48463;43.604;3.872;2023-05-10T00:53:46;16.80;99.90
62424;DHT22;48463;43.604;3.872;2023-05-10T00:56:12;16.70;99.90
62424;DHT22;48463;43.604;3.872;2023-05-10T00:58:39;16.80;99.90
62424;DHT22;48463;43.604;3.872;2023-05-10T01:01:05;16.80;99.90
62424;DHT22;48463;43.604;3.872;2023-05-10T01:03:32;16.80;99.90
62424;DHT22;48463;43.604;3.872;2023-05-10T01:05:58;16.80;99.90
62424;DHT22;48463;43.604;3.872;2023-05-10T01:08:24;16.70;99.90
62424;DHT22;48463;43.604;3.872;2023-05-10T01:10:50;16.70;99.90
62424;DHT22;48463;43.604;3.872;2023-05-10T01:13:32;16.70;99.90
62424;DHT22;48463;43.604;3.872;2023-05-10T01:15:59;16.50;99.90
62424;DHT22;48463;43.604;3.872;2023-05-10T01:18:28;16.50;99.90
62424;DHT22;48463;43.604;3.872;2023-05-10T01:24:15;16.60;99.90
62424;DHT22;48463;43.604;3.872;2023-05-10T01:26:39;16.60;99.90
62424;DHT22;48463;43.604;3.872;2023-05-10T01:29:18;16.60;99.90
62424;DHT22;48463;43.604;3.872;2023-05-10T01:34:21;16.60;99.90
62424;DHT22;48463;43.604;3.872;2023-05-10T01:37:01;16.50;99.90
62424;DHT22;48463;43.604;3.872;2023-05-10T01:42:11;16.50;99.90
62424;DHT22;48463;43.604;3.872;2023-05-10T01:47:31;16.40;99.90
62424;DHT22;48463;43.604;3.872;2023-05-10T01:50:02;16.40;99.90
62424;DHT22;48463;43.604;3.872;2023-05-10T01:52:38;16.40;99.90
62424;DHT22;48463;43.604;3.872;2023-05-10T01:55:08;16.40;99.90
62424;DHT22;48463;43.604;3.872;2023-05-10T01:57:37;16.30;99.90
62424;DHT22;48463;43.604;3.872;2023-05-10T02:00:07;16.30;99.90
62424;DHT22;48463;43.604;3.872;2023-05-10T02:02:37;16.30;99.90
62424;DHT22;48463;43.604;3.872;2023-05-10T02:05:05;16.30;99.90
62424;DHT22;48463;43.604;3.872;2023-05-10T02:07:34;16.40;99.90
62424;DHT22;48463;43.604;3.872;2023-05-10T02:10:05;16.40;99.90
62424;DHT22;48463;43.604;3.872;2023-05-10T02:12:33;16.30;99.90
62424;DHT22;48463;43.604;3.872;2023-05-10T02:15:02;16.20;99.90
62424;DHT22;48463;43.604;3.872;2023-05-10T02:17:31;16.20;99.90
62424;DHT22;48463;43.604;3.872;2023-05-10T02:19:57;16.30;99.90
62424;DHT22;48463;43.604;3.872;2023-05-10T02:22:25;16.30;99.90
62424;DHT22;48463;43.604;3.872;2023-05-10T02:24:53;16.30;99.90
62424;DHT22;48463;43.604;3.872;2023-05-10T02:27:20;16.20;99.90
62424;DHT22;48463;43.604;3.872;2023-05-10T02:29:50;16.30;99.90
62424;DHT22;48463;43.604;3.872;2023-05-10T02:32:16;16.30;99.90
62424;DHT22;48463;43.604;3.872;2023-05-10T02:34:43;16.20;99.90
62424;DHT22;48463;43.604;3.872;2023-05-10T02:37:14;16.20;99.90
62424;DHT22;48463;43.604;3.872;2023-05-10T02:39:41;16.20;99.90
62424;DHT22;48463;43.604;3.872;2023-05-10T02:42:15;16.10;99.90
62424;DHT22;48463;43.604;3.872;2023-05-10T02:44:43;16.10;99.90
62424;DHT22;48463;43.604;3.872;2023-05-10T02:47:10;16.10;99.90
62424;DHT22;48463;43.604;3.872;2023-05-10T02:49:36;16.10;99.90
62424;DHT22;48463;43.604;3.872;2023-05-10T02:52:04;16.10;99.90
62424;DHT22;48463;43.604;3.872;2023-05-10T02:54:34;16.10;99.90
62424;DHT22;48463;43.604;3.872;2023-05-10T02:57:05;16.10;99.80
62424;DHT22;48463;43.604;3.872;2023-05-10T02:59:32;16.10;99.90
62424;DHT22;48463;43.604;3.872;2023-05-10T03:01:59;16.00;99.90
62424;DHT22;48463;43.604;3.872;2023-05-10T03:04:25;15.90;99.90
62424;DHT22;48463;43.604;3.872;2023-05-10T03:06:51;15.90;99.90
62424;DHT22;48463;43.604;3.872;2023-05-10T03:09:18;15.90;99.90
62424;DHT22;48463;43.604;3.872;2023-05-10T03:11:49;15.80;99.90
62424;DHT22;48463;43.604;3.872;2023-05-10T03:17:04;15.80;99.90
62424;DHT22;48463;43.604;3.872;2023-05-10T03:19:55;15.80;99.90
62424;DHT22;48463;43.604;3.872;2023-05-10T03:22:31;15.80;99.90
62424;DHT22;48463;43.604;3.872;2023-05-10T03:24:57;15.70;99.90
62424;DHT22;48463;43.604;3.872;2023-05-10T03:27:26;15.60;99.90
62424;DHT22;48463;43.604;3.872;2023-05-10T03:29:53;15.60;99.90
62424;DHT22;48463;43.604;3.872;2023-05-10T03:32:20;15.60;99.90
62424;DHT22;48463;43.604;3.872;2023-05-10T03:34:46;15.70;99.90
62424;DHT22;48463;43.604;3.872;2023-05-10T03:37:12;15.60;99.90
62424;DHT22;48463;43.604;3.872;2023-05-10T03:39:37;15.60;99.90
62424;DHT22;48463;43.604;3.872;2023-05-10T03:42:03;15.50;99.90
62424;DHT22;48463;43.604;3.872;2023-05-10T03:44:29;15.50;99.90
62424;DHT22;48463;43.604;3.872;2023-05-10T03:46:55;15.50;99.90
62424;DHT22;48463;43.604;3.872;2023-05-10T03:49:22;15.50;99.90
62424;DHT22;48463;43.604;3.872;2023-05-10T03:51:49;15.40;99.90
62424;DHT22;48463;43.604;3.872;2023-05-10T03:54:14;15.40;99.90
62424;DHT22;48463;43.604;3.872;2023-05-10T03:56:40;15.40;99.90
62424;DHT22;48463;43.604;3.872;2023-05-10T03:59:05;15.40;99.90
62424;DHT22;48463;43.604;3.872;2023-05-10T04:01:34;15.30;99.90
62424;DHT22;48463;43.604;3.872;2023-05-10T04:04:01;15.30;99.90
62424;DHT22;48463;43.604;3.872;2023-05-10T04:06:26;15.30;99.90
62424;DHT22;48463;43.604;3.872;2023-05-10T04:08:52;15.30;99.90
62424;DHT22;48463;43.604;3.872;2023-05-10T04:11:18;15.20;99.90
62424;DHT22;48463;43.604;3.872;2023-05-10T04:13:43;15.20;99.90
62424;DHT22;48463;43.604;3.872;2023-05-10T04:16:09;15.20;99.90
62424;DHT22;48463;43.604;3.872;2023-05-10T04:18:35;15.20;99.90
62424;DHT22;48463;43.604;3.872;2023-05-10T04:21:00;15.20;99.90
62424;DHT22;48463;43.604;3.872;2023-05-10T04:23:29;15.20;99.90
62424;DHT22;48463;43.604;3.872;2023-05-10T04:26:01;15.20;99.90
62424;DHT22;48463;43.604;3.872;2023-05-10T04:28:28;15.20;99.90
62424;DHT22;48463;43.604;3.872;2023-05-10T04:31:04;15.20;99.90
62424;DHT22;48463;43.604;3.872;2023-05-10T04:33:30;15.10;99.90
62424;DHT22;48463;43.604;3.872;2023-05-10T04:35:55;15.10;99.90
62424;DHT22;48463;43.604;3.872;2023-05-10T04:38:21;15.10;99.90
62424;DHT22;48463;43.604;3.872;2023-05-10T04:40:47;15.10;99.90
62424;DHT22;48463;43.604;3.872;2023-05-10T04:43:12;15.00;99.90
62424;DHT22;48463;43.604;3.872;2023-05-10T04:45:38;15.10;99.90
62424;DHT22;48463;43.604;3.872;2023-05-10T04:48:04;15.00;99.90
62424;DHT22;48463;43.604;3.872;2023-05-10T04:50:30;15.00;99.90
62424;DHT22;48463;43.604;3.872;2023-05-10T04:52:55;14.90;99.90
62424;DHT22;48463;43.604;3.872;2023-05-10T04:55:21;14.90;99.90
62424;DHT22;48463;43.604;3.872;2023-05-10T04:57:47;14.90;99.90
62424;DHT22;48463;43.604;3.872;2023-05-10T05:00:13;15.00;99.90
62424;DHT22;48463;43.604;3.872;2023-05-10T05:02:43;15.00;99.90
62424;DHT22;48463;43.604;3.872;2023-05-10T05:05:13;15.00;99.90
62424;DHT22;48463;43.604;3.872;2023-05-10T05:07:39;15.00;99.90
62424;DHT22;48463;43.604;3.872;2023-05-10T05:10:06;15.00;99.90
62424;DHT22;48463;43.604;3.872;2023-05-10T05:12:34;15.00;99.90
62424;DHT22;48463;43.604;3.872;2023-05-10T05:15:00;15.00;99.90
62424;DHT22;48463;43.604;3.872;2023-05-10T05:17:26;15.10;99.90
62424;DHT22;48463;43.604;3.872;2023-05-10T05:19:52;15.20;99.90
62424;DHT22;48463;43.604;3.872;2023-05-10T05:22:18;15.20;99.90
62424;DHT22;48463;43.604;3.872;2023-05-10T05:24:45;15.10;99.90
62424;DHT22;48463;43.604;3.872;2023-05-10T05:27:11;15.10;99.90
62424;DHT22;48463;43.604;3.872;2023-05-10T05:29:37;15.10;99.90
62424;DHT22;48463;43.604;3.872;2023-05-10T05:32:03;15.00;99.90
62424;DHT22;48463;43.604;3.872;2023-05-10T05:34:30;15.10;99.90
62424;DHT22;48463;43.604;3.872;2023-05-10T05:36:56;15.20;99.90
62424;DHT22;48463;43.604;3.872;2023-05-10T05:39:21;15.30;99.90
62424;DHT22;48463;43.604;3.872;2023-05-10T05:41:47;15.30;99.90
62424;DHT22;48463;43.604;3.872;2023-05-10T05:44:13;15.40;99.90
62424;DHT22;48463;43.604;3.872;2023-05-10T05:46:39;15.40;99.90
62424;DHT22;48463;43.604;3.872;2023-05-10T05:49:04;15.40;99.90
62424;DHT22;48463;43.604;3.872;2023-05-10T05:51:30;15.40;99.90
62424;DHT22;48463;43.604;3.872;2023-05-10T05:53:56;15.60;99.90
62424;DHT22;48463;43.604;3.872;2023-05-10T05:56:22;15.60;99.90
62424;DHT22;48463;43.604;3.872;2023-05-10T05:58:52;15.60;99.90
62424;DHT22;48463;43.604;3.872;2023-05-10T06:01:18;15.50;99.90
62424;DHT22;48463;43.604;3.872;2023-05-10T06:03:44;15.50;99.90
62424;DHT22;48463;43.604;3.872;2023-05-10T06:06:10;15.60;99.90
62424;DHT22;48463;43.604;3.872;2023-05-10T06:08:35;15.80;99.90
62424;DHT22;48463;43.604;3.872;2023-05-10T06:11:02;15.80;99.90
62424;DHT22;48463;43.604;3.872;2023-05-10T06:13:29;15.80;99.90
62424;DHT22;48463;43.604;3.872;2023-05-10T06:15:58;15.80;99.90
62424;DHT22;48463;43.604;3.872;2023-05-10T06:18:25;16.00;99.90
62424;DHT22;48463;43.604;3.872;2023-05-10T06:20:51;15.90;99.10
62424;DHT22;48463;43.604;3.872;2023-05-10T06:23:17;16.10;99.20
62424;DHT22;48463;43.604;3.872;2023-05-10T06:25:43;16.20;98.10
62424;DHT22;48463;43.604;3.872;2023-05-10T06:28:10;16.10;97.40
62424;DHT22;48463;43.604;3.872;2023-05-10T06:30:36;16.10;96.40
62424;DHT22;48463;43.604;3.872;2023-05-10T06:33:03;16.20;96.60
62424;DHT22;48463;43.604;3.872;2023-05-10T06:35:29;16.30;96.70
62424;DHT22;48463;43.604;3.872;2023-05-10T06:37:55;16.20;96.20
62424;DHT22;48463;43.604;3.872;2023-05-10T06:40:21;16.20;96.00
62424;DHT22;48463;43.604;3.872;2023-05-10T06:42:50;16.30;95.00
62424;DHT22;48463;43.604;3.872;2023-05-10T06:45:16;16.30;95.10
62424;DHT22;48463;43.604;3.872;2023-05-10T06:47:42;16.30;94.90
62424;DHT22;48463;43.604;3.872;2023-05-10T06:50:09;16.40;95.20
62424;DHT22;48463;43.604;3.872;2023-05-10T06:52:35;16.40;94.80
62424;DHT22;48463;43.604;3.872;2023-05-10T06:55:24;16.30;94.50
62424;DHT22;48463;43.604;3.872;2023-05-10T06:57:50;16.30;94.30
62424;DHT22;48463;43.604;3.872;2023-05-10T07:00:21;16.30;94.30
62424;DHT22;48463;43.604;3.872;2023-05-10T07:02:47;16.30;93.90
62424;DHT22;48463;43.604;3.872;2023-05-10T07:05:15;16.20;94.00
62424;DHT22;48463;43.604;3.872;2023-05-10T07:07:41;16.40;94.20
62424;DHT22;48463;43.604;3.872;2023-05-10T07:10:07;16.50;94.20
62424;DHT22;48463;43.604;3.872;2023-05-10T07:12:33;16.50;93.90
62424;DHT22;48463;43.604;3.872;2023-05-10T07:14:59;16.50;93.40
62424;DHT22;48463;43.604;3.872;2023-05-10T07:17:38;16.60;93.70
62424;DHT22;48463;43.604;3.872;2023-05-10T07:20:15;16.60;93.20
62424;DHT22;48463;43.604;3.872;2023-05-10T07:22:40;16.70;93.70
62424;DHT22;48463;43.604;3.872;2023-05-10T07:25:06;16.70;93.10
62424;DHT22;48463;43.604;3.872;2023-05-10T07:27:32;16.80;92.80
62424;DHT22;48463;43.604;3.872;2023-05-10T07:29:58;16.70;92.60
62424;DHT22;48463;43.604;3.872;2023-05-10T07:32:24;16.70;92.60
62424;DHT22;48463;43.604;3.872;2023-05-10T07:34:49;16.60;92.40
62424;DHT22;48463;43.604;3.872;2023-05-10T07:37:15;16.80;92.40
62424;DHT22;48463;43.604;3.872;2023-05-10T07:39:41;17.00;92.40
62424;DHT22;48463;43.604;3.872;2023-05-10T07:42:06;17.00;92.00
62424;DHT22;48463;43.604;3.872;2023-05-10T07:44:33;17.10;92.00
62424;DHT22;48463;43.604;3.872;2023-05-10T07:46:59;17.10;91.90
62424;DHT22;48463;43.604;3.872;2023-05-10T07:49:26;17.00;91.30
62424;DHT22;48463;43.604;3.872;2023-05-10T07:51:52;17.10;91.10
62424;DHT22;48463;43.604;3.872;2023-05-10T07:54:17;17.10;91.30
62424;DHT22;48463;43.604;3.872;2023-05-10T07:56:43;17.10;91.00
62424;DHT22;48463;43.604;3.872;2023-05-10T07:59:18;16.70;90.40
62424;DHT22;48463;43.604;3.872;2023-05-10T08:01:44;17.00;90.90
62424;DHT22;48463;43.604;3.872;2023-05-10T08:04:10;17.10;90.20
62424;DHT22;48463;43.604;3.872;2023-05-10T08:06:37;17.20;90.20
62424;DHT22;48463;43.604;3.872;2023-05-10T08:09:02;17.00;90.00
62424;DHT22;48463;43.604;3.872;2023-05-10T08:11:30;17.30;90.10
62424;DHT22;48463;43.604;3.872;2023-05-10T08:13:55;17.40;88.40
62424;DHT22;48463;43.604;3.872;2023-05-10T08:16:24;17.20;87.70
62424;DHT22;48463;43.604;3.872;2023-05-10T08:18:53;17.50;88.70
62424;DHT22;48463;43.604;3.872;2023-05-10T08:21:20;17.40;87.70
62424;DHT22;48463;43.604;3.872;2023-05-10T08:23:46;17.60;87.40
62424;DHT22;48463;43.604;3.872;2023-05-10T08:26:12;17.80;85.50
62424;DHT22;48463;43.604;3.872;2023-05-10T08:28:38;17.90;85.10
62424;DHT22;48463;43.604;3.872;2023-05-10T08:31:04;18.00;84.90
62424;DHT22;48463;43.604;3.872;2023-05-10T08:33:30;17.90;83.40
62424;DHT22;48463;43.604;3.872;2023-05-10T08:35:55;17.70;82.40
62424;DHT22;48463;43.604;3.872;2023-05-10T08:38:21;17.60;82.50
62424;DHT22;48463;43.604;3.872;2023-05-10T08:40:49;18.00;82.80
62424;DHT22;48463;43.604;3.872;2023-05-10T08:43:17;18.00;82.90
62424;DHT22;48463;43.604;3.872;2023-05-10T08:45:44;17.90;83.00
62424;DHT22;48463;43.604;3.872;2023-05-10T08:48:15;18.20;82.80
62424;DHT22;48463;43.604;3.872;2023-05-10T08:50:46;18.40;83.00
62424;DHT22;48463;43.604;3.872;2023-05-10T08:53:20;18.50;83.40
62424;DHT22;48463;43.604;3.872;2023-05-10T08:55:49;18.10;82.60
62424;DHT22;48463;43.604;3.872;2023-05-10T08:58:17;18.30;82.70
62424;DHT22;48463;43.604;3.872;2023-05-10T09:00:48;18.40;82.60
62424;DHT22;48463;43.604;3.872;2023-05-10T09:03:14;18.50;81.70
62424;DHT22;48463;43.604;3.872;2023-05-10T09:05:40;18.50;81.30
62424;DHT22;48463;43.604;3.872;2023-05-10T09:08:08;18.20;81.30
62424;DHT22;48463;43.604;3.872;2023-05-10T09:10:34;18.20;81.10
62424;DHT22;48463;43.604;3.872;2023-05-10T09:13:01;18.40;81.60
62424;DHT22;48463;43.604;3.872;2023-05-10T09:15:30;18.60;81.30
62424;DHT22;48463;43.604;3.872;2023-05-10T09:17:59;18.60;82.10
62424;DHT22;48463;43.604;3.872;2023-05-10T09:20:27;18.90;82.40
62424;DHT22;48463;43.604;3.872;2023-05-10T09:22:53;18.80;82.80
62424;DHT22;48463;43.604;3.872;2023-05-10T09:25:19;18.70;82.20
62424;DHT22;48463;43.604;3.872;2023-05-10T09:27:47;18.70;81.80
62424;DHT22;48463;43.604;3.872;2023-05-10T09:30:39;18.50;82.50
62424;DHT22;48463;43.604;3.872;2023-05-10T09:33:04;18.60;83.30
62424;DHT22;48463;43.604;3.872;2023-05-10T09:35:32;18.80;82.70
62424;DHT22;48463;43.604;3.872;2023-05-10T09:38:04;18.90;81.60
62424;DHT22;48463;43.604;3.872;2023-05-10T09:40:32;19.10;82.60
62424;DHT22;48463;43.604;3.872;2023-05-10T09:43:07;18.90;81.60
62424;DHT22;48463;43.604;3.872;2023-05-10T09:45:36;18.80;82.00
62424;DHT22;48463;43.604;3.872;2023-05-10T09:48:03;19.00;82.10
62424;DHT22;48463;43.604;3.872;2023-05-10T09:50:29;19.20;82.10
62424;DHT22;48463;43.604;3.872;2023-05-10T09:52:58;19.20;83.10
62424;DHT22;48463;43.604;3.872;2023-05-10T09:55:46;19.30;83.00
62424;DHT22;48463;43.604;3.872;2023-05-10T09:58:17;19.30;81.40
62424;DHT22;48463;43.604;3.872;2023-05-10T10:01:03;19.10;81.70
62424;DHT22;48463;43.604;3.872;2023-05-10T10:03:34;19.10;81.20
62424;DHT22;48463;43.604;3.872;2023-05-10T10:06:08;19.40;81.30
62424;DHT22;48463;43.604;3.872;2023-05-10T10:08:35;19.60;82.40
62424;DHT22;48463;43.604;3.872;2023-05-10T10:11:01;19.50;82.40
62424;DHT22;48463;43.604;3.872;2023-05-10T10:13:38;19.90;82.10
62424;DHT22;48463;43.604;3.872;2023-05-10T10:16:04;19.50;80.60
62424;DHT22;48463;43.604;3.872;2023-05-10T10:18:39;19.20;79.50
62424;DHT22;48463;43.604;3.872;2023-05-10T10:21:17;19.30;79.90
62424;DHT22;48463;43.604;3.872;2023-05-10T10:23:54;19.50;78.70
62424;DHT22;48463;43.604;3.872;2023-05-10T10:26:24;19.50;77.10
62424;DHT22;48463;43.604;3.872;2023-05-10T10:32:33;20.00;77.70
62424;DHT22;48463;43.604;3.872;2023-05-10T10:35:03;19.90;76.70
62424;DHT22;48463;43.604;3.872;2023-05-10T10:37:46;19.80;75.80
62424;DHT22;48463;43.604;3.872;2023-05-10T10:40:29;19.90;75.60
62424;DHT22;48463;43.604;3.872;2023-05-10T10:42:56;19.30;75.40
62424;DHT22;48463;43.604;3.872;2023-05-10T10:45:23;19.50;75.70
62424;DHT22;48463;43.604;3.872;2023-05-10T10:48:20;19.30;75.10
62424;DHT22;48463;43.604;3.872;2023-05-10T10:50:45;19.30;74.40
62424;DHT22;48463;43.604;3.872;2023-05-10T10:53:12;19.30;74.70
62424;DHT22;48463;43.604;3.872;2023-05-10T10:55:55;19.40;74.50
62424;DHT22;48463;43.604;3.872;2023-05-10T10:58:32;19.30;75.00
62424;DHT22;48463;43.604;3.872;2023-05-10T11:01:33;19.70;74.70
62424;DHT22;48463;43.604;3.872;2023-05-10T11:06:36;19.80;74.90
62424;DHT22;48463;43.604;3.872;2023-05-10T11:09:07;20.10;74.20
62424;DHT22;48463;43.604;3.872;2023-05-10T11:11:35;19.90;74.70
62424;DHT22;48463;43.604;3.872;2023-05-10T11:14:09;20.20;74.90
62424;DHT22;48463;43.604;3.872;2023-05-10T11:16:51;19.90;75.00
62424;DHT22;48463;43.604;3.872;2023-05-10T11:19:18;20.00;74.90
62424;DHT22;48463;43.604;3.872;2023-05-10T11:24:31;20.00;74.00
62424;DHT22;48463;43.604;3.872;2023-05-10T11:26:59;19.60;72.90
62424;DHT22;48463;43.604;3.872;2023-05-10T11:29:26;19.90;72.30
62424;DHT22;48463;43.604;3.872;2023-05-10T11:31:52;19.90;72.60
62424;DHT22;48463;43.604;3.872;2023-05-10T11:36:54;20.50;72.80
62424;DHT22;48463;43.604;3.872;2023-05-10T11:39:21;20.50;72.30
62424;DHT22;48463;43.604;3.872;2023-05-10T11:41:50;20.60;72.60
62424;DHT22;48463;43.604;3.872;2023-05-10T11:44:17;20.80;72.30
62424;DHT22;48463;43.604;3.872;2023-05-10T11:46:46;20.90;70.80
62424;DHT22;48463;43.604;3.872;2023-05-10T11:49:13;21.00;70.70
62424;DHT22;48463;43.604;3.872;2023-05-10T11:51:40;20.70;70.20
62424;DHT22;48463;43.604;3.872;2023-05-10T11:54:09;20.70;70.80
62424;DHT22;48463;43.604;3.872;2023-05-10T11:56:46;20.90;71.00
62424;DHT22;48463;43.604;3.872;2023-05-10T11:59:14;20.70;70.50
62424;DHT22;48463;43.604;3.872;2023-05-10T12:01:41;20.90;70.50
62424;DHT22;48463;43.604;3.872;2023-05-10T12:04:06;20.80;70.50
62424;DHT22;48463;43.604;3.872;2023-05-10T12:06:37;20.70;70.10
62424;DHT22;48463;43.604;3.872;2023-05-10T12:09:07;20.80;69.40
62424;DHT22;48463;43.604;3.872;2023-05-10T12:11:37;21.10;68.70
62424;DHT22;48463;43.604;3.872;2023-05-10T12:14:04;21.10;68.40
62424;DHT22;48463;43.604;3.872;2023-05-10T12:16:31;21.00;67.80
62424;DHT22;48463;43.604;3.872;2023-05-10T12:18:58;21.20;68.20
62424;DHT22;48463;43.604;3.872;2023-05-10T12:21:25;21.30;67.90
62424;DHT22;48463;43.604;3.872;2023-05-10T12:23:58;21.30;68.40
62424;DHT22;48463;43.604;3.872;2023-05-10T12:26:25;21.50;68.10
62424;DHT22;48463;43.604;3.872;2023-05-10T12:28:55;21.40;68.00
62424;DHT22;48463;43.604;3.872;2023-05-10T12:31:22;21.20;68.30
62424;DHT22;48463;43.604;3.872;2023-05-10T12:33:48;21.30;69.00
62424;DHT22;48463;43.604;3.872;2023-05-10T12:36:15;21.80;68.80
62424;DHT22;48463;43.604;3.872;2023-05-10T12:38:43;21.80;67.80
62424;DHT22;48463;43.604;3.872;2023-05-10T12:41:17;21.80;67.50
62424;DHT22;48463;43.604;3.872;2023-05-10T12:43:43;21.90;67.80
62424;DHT22;48463;43.604;3.872;2023-05-10T12:46:12;22.00;68.00
62424;DHT22;48463;43.604;3.872;2023-05-10T12:48:39;22.10;68.60
62424;DHT22;48463;43.604;3.872;2023-05-10T12:51:13;21.80;68.00
62424;DHT22;48463;43.604;3.872;2023-05-10T12:53:44;21.90;68.40
62424;DHT22;48463;43.604;3.872;2023-05-10T12:56:13;22.00;68.30
62424;DHT22;48463;43.604;3.872;2023-05-10T12:58:38;22.40;68.00
62424;DHT22;48463;43.604;3.872;2023-05-10T13:01:05;22.10;68.10
62424;DHT22;48463;43.604;3.872;2023-05-10T13:03:31;22.10;68.00
62424;DHT22;48463;43.604;3.872;2023-05-10T13:05:57;22.40;68.10
62424;DHT22;48463;43.604;3.872;2023-05-10T13:08:22;22.50;68.00
62424;DHT22;48463;43.604;3.872;2023-05-10T13:10:48;22.60;68.70
62424;DHT22;48463;43.604;3.872;2023-05-10T13:13:14;22.40;67.90
62424;DHT22;48463;43.604;3.872;2023-05-10T13:15:40;22.00;68.20
62424;DHT22;48463;43.604;3.872;2023-05-10T13:18:06;21.90;68.80
62424;DHT22;48463;43.604;3.872;2023-05-10T13:20:32;22.00;70.00
62424;DHT22;48463;43.604;3.872;2023-05-10T13:22:57;22.20;69.70
62424;DHT22;48463;43.604;3.872;2023-05-10T13:25:23;22.30;70.30
62424;DHT22;48463;43.604;3.872;2023-05-10T13:27:49;22.40;69.50
62424;DHT22;48463;43.604;3.872;2023-05-10T13:30:14;22.40;69.20
62424;DHT22;48463;43.604;3.872;2023-05-10T13:32:40;22.60;68.90
62424;DHT22;48463;43.604;3.872;2023-05-10T13:35:07;22.50;69.00
62424;DHT22;48463;43.604;3.872;2023-05-10T13:37:35;22.10;69.20
62424;DHT22;48463;43.604;3.872;2023-05-10T13:40:04;22.30;69.30
62424;DHT22;48463;43.604;3.872;2023-05-10T13:42:29;22.40;69.30
62424;DHT22;48463;43.604;3.872;2023-05-10T13:44:57;22.90;68.80
62424;DHT22;48463;43.604;3.872;2023-05-10T13:47:22;22.80;68.90
62424;DHT22;48463;43.604;3.872;2023-05-10T13:49:48;22.50;68.90
62424;DHT22;48463;43.604;3.872;2023-05-10T13:52:15;22.50;69.20
62424;DHT22;48463;43.604;3.872;2023-05-10T13:54:41;22.30;69.60
62424;DHT22;48463;43.604;3.872;2023-05-10T13:57:07;22.50;69.50
62424;DHT22;48463;43.604;3.872;2023-05-10T13:59:32;22.30;69.10
62424;DHT22;48463;43.604;3.872;2023-05-10T14:01:59;22.50;69.20
62424;DHT22;48463;43.604;3.872;2023-05-10T14:04:25;22.50;69.20
62424;DHT22;48463;43.604;3.872;2023-05-10T14:06:51;22.90;69.30
62424;DHT22;48463;43.604;3.872;2023-05-10T14:09:18;22.70;69.30
62424;DHT22;48463;43.604;3.872;2023-05-10T14:11:44;22.70;70.10
62424;DHT22;48463;43.604;3.872;2023-05-10T14:14:11;22.90;69.10
62424;DHT22;48463;43.604;3.872;2023-05-10T14:16:37;23.20;68.70
62424;DHT22;48463;43.604;3.872;2023-05-10T14:19:02;23.00;67.80
62424;DHT22;48463;43.604;3.872;2023-05-10T14:21:28;23.00;67.20
62424;DHT22;48463;43.604;3.872;2023-05-10T14:23:56;23.10;68.00
62424;DHT22;48463;43.604;3.872;2023-05-10T14:26:21;23.00;67.00
62424;DHT22;48463;43.604;3.872;2023-05-10T14:28:47;23.20;67.20
62424;DHT22;48463;43.604;3.872;2023-05-10T14:31:13;22.90;66.80
62424;DHT22;48463;43.604;3.872;2023-05-10T14:33:40;23.00;67.50
62424;DHT22;48463;43.604;3.872;2023-05-10T14:36:09;23.10;66.90
62424;DHT22;48463;43.604;3.872;2023-05-10T14:38:34;23.60;67.00
62424;DHT22;48463;43.604;3.872;2023-05-10T14:41:00;23.60;67.00
62424;DHT22;48463;43.604;3.872;2023-05-10T14:43:53;23.60;67.10
62424;DHT22;48463;43.604;3.872;2023-05-10T14:46:21;23.50;67.30
62424;DHT22;48463;43.604;3.872;2023-05-10T14:48:47;23.80;66.40
62424;DHT22;48463;43.604;3.872;2023-05-10T14:51:12;25.50;66.40
62424;DHT22;48463;43.604;3.872;2023-05-10T14:53:38;28.00;65.00
62424;DHT22;48463;43.604;3.872;2023-05-10T14:56:04;29.10;61.90
62424;DHT22;48463;43.604;3.872;2023-05-10T14:58:30;29.30;60.40
62424;DHT22;48463;43.604;3.872;2023-05-10T15:00:56;28.80;58.80
62424;DHT22;48463;43.604;3.872;2023-05-10T15:03:23;29.50;58.40
62424;DHT22;48463;43.604;3.872;2023-05-10T15:05:49;30.20;57.10
62424;DHT22;48463;43.604;3.872;2023-05-10T15:08:15;31.00;55.70
62424;DHT22;48463;43.604;3.872;2023-05-10T15:10:41;28.80;54.70
62424;DHT22;48463;43.604;3.872;2023-05-10T15:13:07;26.30;56.60
62424;DHT22;48463;43.604;3.872;2023-05-10T15:15:32;24.30;57.70
62424;DHT22;48463;43.604;3.872;2023-05-10T15:17:58;23.90;58.80
62424;DHT22;48463;43.604;3.872;2023-05-10T15:20:24;23.80;58.80
62424;DHT22;48463;43.604;3.872;2023-05-10T15:22:50;24.10;59.90
62424;DHT22;48463;43.604;3.872;2023-05-10T15:25:16;23.90;59.90
62424;DHT22;48463;43.604;3.872;2023-05-10T15:27:41;23.20;61.10
62424;DHT22;48463;43.604;3.872;2023-05-10T15:30:09;23.70;62.10
62424;DHT22;48463;43.604;3.872;2023-05-10T15:32:35;23.30;61.80
62424;DHT22;48463;43.604;3.872;2023-05-10T15:35:00;23.80;62.00
62424;DHT22;48463;43.604;3.872;2023-05-10T15:37:26;23.80;60.80
62424;DHT22;48463;43.604;3.872;2023-05-10T15:39:52;23.80;61.10
62424;DHT22;48463;43.604;3.872;2023-05-10T15:42:18;23.60;61.60
62424;DHT22;48463;43.604;3.872;2023-05-10T15:44:44;23.40;62.10
62424;DHT22;48463;43.604;3.872;2023-05-10T15:47:10;23.50;62.60
62424;DHT22;48463;43.604;3.872;2023-05-10T15:49:35;23.50;62.60
62424;DHT22;48463;43.604;3.872;2023-05-10T15:52:01;23.70;61.40
62424;DHT22;48463;43.604;3.872;2023-05-10T15:54:27;23.60;61.10
62424;DHT22;48463;43.604;3.872;2023-05-10T15:56:55;23.30;60.80
62424;DHT22;48463;43.604;3.872;2023-05-10T15:59:21;24.00;61.20